M I D A S
Marine Information and Data Acquisition System
Tripno 1263 of the Zeeleeuw from 2007-04-13 07:27:27 to 2007-04-13 15:20:58
Back to CruiseResearch ActivitiesStationsMapUnderway DataData graphs

EquipmentUnitsComment
TimeDGPSUTC
LatitudeDGPSDM.mWGS84
LongitudeDGPSDM.mWGS84
TemperatureSBE03/SBE38deg celciusITS90
ConductivitySBE21S/mITS90
SalinitySBE21 Practical Salinity Units
ChlorophylAChelsea fluorimeterg/lCalibrated in Aceton
Missing or incorrect values are displayed as -999
Sea surface data collected by the RV Zeeleeuw from 2007-04-13 07:29:40 to 2007-04-13 15:22:38
Time Latitude Longitude Temperature Conductivity Salinity ChlorophylA
2007-04-13 07:30:45 51°13.615 2°56.036 11.8679 3.086529 25.051002 -2.871232
2007-04-13 07:31:45 51°13.639 2°55.946 11.7964 3.038835 24.692216 -2.871232
2007-04-13 07:32:45 51°13.672 2°55.854 11.7216 3.03118 24.66365 -2.871232
2007-04-13 07:33:45 51°13.698 2°55.778 11.7172 3.056113 24.932355 -2.871232
2007-04-13 07:34:45 51°13.71 2°55.733 11.7223 3.059528 24.976457 -2.871232
2007-04-13 07:35:45 51°13.713 2°55.74 11.7284 3.041009 24.809102 -2.871232
2007-04-13 07:36:45 51°13.718 2°55.732 11.6714 3.042768 24.830975 -2.871232
2007-04-13 07:37:45 51°13.761 2°55.704 11.6948 3.075047 25.142008 -2.871232
2007-04-13 07:38:45 51°13.867 2°55.61 11.7624 2.986801 24.309389 -2.871232
2007-04-13 07:39:45 51°13.995 2°55.514 11.7311 2.955148 24.013291 -2.871232
2007-04-13 07:40:45 51°14.124 2°55.416 11.6981 3.006145 24.500336 -2.871232
2007-04-13 07:41:45 51°14.246 2°55.283 11.6944 3.029836 24.730834 -2.871232
2007-04-13 07:42:45 51°14.38 2°55.053 11.648 3.009146 24.548812 -2.871232
2007-04-13 07:43:45 51°14.559 2°54.856 11.3414 3.202844 26.367278 -2.871232
2007-04-13 07:44:45 51°14.74 2°54.656 11.282 3.401702 28.383252 -2.871232
2007-04-13 07:45:45 51°14.934 2°54.485 11.1165 3.428935 28.741425 -2.871232
2007-04-13 07:46:45 51°15.125 2°54.315 11.0563 3.440119 28.919788 -2.871232
2007-04-13 07:47:45 51°15.321 2°54.153 10.9929 3.443123 29.001761 -2.871232
2007-04-13 07:48:45 51°15.519 2°54 10.926 3.477193 29.389562 -2.871232
2007-04-13 07:49:45 51°15.716 2°53.848 10.8972 3.477711 29.430376 -2.871232
2007-04-13 07:50:45 51°15.916 2°53.698 10.8468 3.477401 29.4532 -2.871232
2007-04-13 07:51:45 51°16.117 2°53.55 10.693 3.475952 29.515563 -2.871232
2007-04-13 07:52:45 51°16.316 2°53.399 10.5562 3.475747 29.64065 -2.871232
2007-04-13 07:53:45 51°16.511 2°53.241 10.5348 3.471295 29.683734 -2.871232
2007-04-13 07:54:45 51°16.704 2°53.075 10.5506 3.470984 29.687534 -2.871232
2007-04-13 07:55:45 51°16.896 2°52.91 10.534 3.472538 29.69852 -2.871232
2007-04-13 07:56:45 51°17.091 2°52.742 10.4911 3.47347 29.729886 -2.871232
2007-04-13 07:57:45 51°17.294 2°52.602 10.4935 3.47316 29.757023 -2.871232
2007-04-13 07:58:45 51°17.52 2°52.566 10.4713 3.473781 29.762927 -2.871232
2007-04-13 07:59:46 51°17.751 2°52.542 10.4438 3.473989 29.789016 -2.871232
2007-04-13 08:00:46 51°17.979 2°52.535 10.3002 3.476889 29.856673 -2.871232
2007-04-13 08:01:46 51°18.206 2°52.589 10.2238 3.478547 29.997239 -2.871232
2007-04-13 08:02:46 51°18.407 2°52.751 10.2702 3.477719 30.013781 -2.871232
2007-04-13 08:03:46 51°18.565 2°53.024 10.3182 3.47513 29.946242 -2.871232
2007-04-13 08:04:46 51°18.73 2°53.288 10.3503 3.474922 29.908478 -2.871232
2007-04-13 08:05:46 51°18.897 2°53.55 10.3541 3.47575 29.904223 -2.871232
2007-04-13 08:06:46 51°19.062 2°53.813 10.3577 3.475647 29.900195 -2.871232
2007-04-13 08:07:46 51°19.225 2°54.081 10.3734 3.473886 29.870493 -2.871232
2007-04-13 08:08:46 51°19.386 2°54.352 10.3567 3.470572 29.833584 -2.871232
2007-04-13 08:09:46 51°19.548 2°54.621 10.2912 3.470366 29.852837 -2.871232
2007-04-13 08:10:46 51°19.711 2°54.893 10.2406 3.471091 29.922112 -2.871232
2007-04-13 08:11:46 51°19.865 2°55.175 10.2748 3.472127 29.94956 -2.871232
2007-04-13 08:12:46 51°20.019 2°55.456 10.2819 3.475855 29.965377 -2.871232
2007-04-13 08:13:46 51°20.175 2°55.739 10.2885 3.47689 29.969175 -2.871232
2007-04-13 08:14:46 51°20.33 2°56.02 10.2866 3.478754 29.983945 -2.871232
2007-04-13 08:15:46 51°20.488 2°56.302 10.291 3.477926 29.972208 -2.871232
2007-04-13 08:16:46 51°20.644 2°56.584 10.2531 3.479894 30.005532 -2.871232
2007-04-13 08:17:46 51°20.795 2°56.875 10.2597 3.486625 30.086023 -2.871232
2007-04-13 08:18:46 51°20.935 2°57.176 10.2682 3.496256 30.1744 -2.871232
2007-04-13 08:19:46 51°21.077 2°57.476 10.2665 3.501331 30.215301 -2.871232
2007-04-13 08:20:46 51°21.221 2°57.773 10.2549 3.502574 30.232593 -2.871232
2007-04-13 08:21:46 51°21.371 2°58.062 10.2648 3.504438 30.255846 -2.871232
2007-04-13 08:22:46 51°21.528 2°58.341 10.2739 3.506198 30.265 -2.871232
2007-04-13 08:23:46 51°21.685 2°58.621 10.2878 3.505473 30.246496 -2.871232
2007-04-13 08:24:46 51°21.849 2°58.891 10.3272 3.503919 30.203161 -2.871232
2007-04-13 08:25:46 51°22.019 2°59.151 10.3556 3.502676 30.172082 -2.871232
2007-04-13 08:26:46 51°22.189 2°59.411 10.4182 3.509614 30.178566 -2.871232
2007-04-13 08:27:46 51°22.36 2°59.67 10.4678 3.508371 30.134595 -2.871232
2007-04-13 08:28:46 51°22.53 2°59.931 10.5568 3.511063 30.112945 -2.871232
2007-04-13 08:29:46 51°22.7 3°0.192 10.5319 3.516034 30.136623 -2.871232
2007-04-13 08:30:46 51°22.876 3°0.444 10.5812 3.517173 30.1094 -2.871232
2007-04-13 08:31:46 51°23.052 3°0.699 10.5373 3.518208 30.110116 -2.871232
2007-04-13 08:32:46 51°23.25 3°0.895 10.6316 3.52059 30.139588 -2.871232
2007-04-13 08:33:46 51°23.48 3°0.942 10.6477 3.520486 30.096815 -2.871232
2007-04-13 08:34:46 51°23.711 3°0.985 10.625 3.521107 30.079205 -2.871232
2007-04-13 08:35:46 51°23.943 3°1.035 10.4919 3.520901 30.130369 -2.871232
2007-04-13 08:36:46 51°24.176 3°1.09 10.5169 3.518106 30.183035 -2.871232
2007-04-13 08:37:46 51°24.404 3°1.14 10.3617 3.522352 30.2449 -2.871232
2007-04-13 08:38:46 51°24.627 3°1.19 10.2234 3.555911 30.691657 -2.871232
2007-04-13 08:39:46 51°24.849 3°1.239 10.2552 3.563888 30.845803 -2.871232
2007-04-13 08:40:46 51°25.071 3°1.29 10.28 3.565337 30.836142 -2.871232
2007-04-13 08:41:46 51°25.293 3°1.342 10.1737 3.569998 30.881702 -2.871232
2007-04-13 08:42:46 51°25.51 3°1.442 10.1078 3.567824 30.943635 -2.871232
2007-04-13 08:43:46 51°25.721 3°1.584 10.0792 3.564407 30.973268 -2.871232
2007-04-13 08:44:45 51°25.93 3°1.722 10.0486 3.563683 30.9885 -2.871232
2007-04-13 08:45:46 51°26.14 3°1.896 10.0156 3.562751 31.000162 -2.871232
2007-04-13 08:46:45 51°26.341 3°2.075 10.0149 3.560783 31.008194 -2.871232
2007-04-13 08:47:45 51°26.541 3°2.272 10.0439 3.56099 31.018163 -2.871232
2007-04-13 08:48:45 51°26.742 3°2.468 10.1061 3.564408 31.005041 -2.871232
2007-04-13 08:49:45 51°26.931 3°2.693 10.1001 3.565754 30.994203 -2.871232
2007-04-13 08:50:46 51°27.121 3°2.927 10.0775 3.567618 31.002668 -2.871232
2007-04-13 08:51:46 51°27.31 3°3.154 10.0782 3.567515 31.035061 -2.871232
2007-04-13 08:52:46 51°27.5 3°3.378 10.1893 3.567514 30.989761 -2.871232
2007-04-13 08:53:46 51°27.689 3°3.601 10.1966 3.569792 30.937284 -2.871232
2007-04-13 08:54:46 51°27.878 3°3.826 10.0779 3.570517 30.955332 -2.871232
2007-04-13 08:55:46 51°28.068 3°4.049 10.099 3.567826 31.035675 -2.871232
2007-04-13 08:56:46 51°28.258 3°4.272 10.1602 3.566272 31.001586 -2.871232
2007-04-13 08:57:46 51°28.428 3°4.527 10.2347 3.568031 30.924286 -2.871232
2007-04-13 08:58:46 51°28.571 3°4.826 10.269 3.569274 30.894425 -2.871232
2007-04-13 08:59:46 51°28.725 3°5.113 10.2567 3.573934 30.917942 -2.871232
2007-04-13 09:00:46 51°28.873 3°5.399 10.2661 3.575074 30.926524 -2.871232
2007-04-13 09:01:46 51°28.946 3°5.591 10.2239 3.576213 30.951672 -2.871232
2007-04-13 09:02:46 51°29.007 3°5.71 10.2623 3.576939 30.972069 -2.871232
2007-04-13 09:03:46 51°29.077 3°5.841 10.2458 3.580875 30.995692 -2.871232
2007-04-13 09:04:46 51°29.16 3°6.006 10.2069 3.582532 31.023494 -2.871232
2007-04-13 09:05:46 51°29.248 3°6.179 10.1933 3.582843 31.050247 -2.871232
2007-04-13 09:06:46 51°29.317 3°6.335 10.1668 3.58274 31.065113 -2.871232
2007-04-13 09:07:46 51°29.366 3°6.454 10.1787 3.581186 31.074758 -2.871232
2007-04-13 09:08:46 51°29.405 3°6.542 10.2124 3.582533 31.063118 -2.871232
2007-04-13 09:09:46 51°29.439 3°6.617 10.2106 3.583361 31.060784 -2.871232
2007-04-13 09:10:46 51°29.468 3°6.685 10.2082 3.583672 31.05981 -2.871232
2007-04-13 09:11:46 51°29.493 3°6.751 10.1999 3.583568 31.05802 -2.871232
2007-04-13 09:12:46 51°29.52 3°6.819 10.1974 3.582947 31.061554 -2.871232
2007-04-13 09:13:46 51°29.551 3°6.886 10.2055 3.582843 31.062937 -2.871232
2007-04-13 09:14:46 51°29.586 3°6.951 10.2036 3.583568 31.063572 -2.871232
2007-04-13 09:15:46 51°29.622 3°7.014 10.1932 3.58305 31.065725 -2.871232
2007-04-13 09:16:46 51°29.658 3°7.078 10.1892 3.583051 31.071281 -2.871232
2007-04-13 09:17:46 51°29.693 3°7.145 10.1854 3.583465 31.076066 -2.871232
2007-04-13 09:18:46 51°29.727 3°7.209 10.1866 3.583879 31.083234 -2.871232
2007-04-13 09:19:46 51°29.76 3°7.274 10.1788 3.583672 31.084415 -2.871232
2007-04-13 09:20:46 51°29.793 3°7.337 10.1808 3.583672 31.086798 -2.871232
2007-04-13 09:21:46 51°29.825 3°7.399 10.175 3.583776 31.09177 -2.871232
2007-04-13 09:22:46 51°29.858 3°7.461 10.1658 3.583569 31.096132 -2.871232
2007-04-13 09:23:46 51°29.893 3°7.522 10.1663 3.583569 31.097722 -2.871232
2007-04-13 09:24:46 51°29.927 3°7.584 10.1701 3.583672 31.09713 -2.871232
2007-04-13 09:25:46 51°29.96 3°7.646 10.169 3.583672 31.09554 -2.871232
2007-04-13 09:26:46 51°29.995 3°7.706 10.1534 3.583154 31.096113 -2.871232
2007-04-13 09:27:46 51°30.029 3°7.765 10.1494 3.582533 31.10046 -2.871232
2007-04-13 09:28:46 51°30.064 3°7.826 10.1483 3.58274 31.104844 -2.871232
2007-04-13 09:29:46 51°30.097 3°7.888 10.1548 3.583258 31.106656 -2.871232
2007-04-13 09:30:46 51°30.131 3°7.949 10.1629 3.583465 31.103881 -2.871232
2007-04-13 09:31:46 51°30.167 3°8.01 10.1666 3.583569 31.100107 -2.871232
2007-04-13 09:32:46 51°30.202 3°8.071 10.1606 3.583258 31.097112 -2.871232
2007-04-13 09:33:46 51°30.236 3°8.133 10.1573 3.582637 31.095096 -2.871232
2007-04-13 09:34:46 51°30.272 3°8.195 10.162 3.582533 31.093302 -2.871232
2007-04-13 09:35:46 51°30.308 3°8.255 10.1689 3.583154 31.095318 -2.871232
2007-04-13 09:36:46 51°30.345 3°8.316 10.1793 3.58419 31.095762 -2.871232
2007-04-13 09:37:46 51°30.379 3°8.377 10.1787 3.584812 31.097778 -2.871232
2007-04-13 09:38:46 51°30.413 3°8.439 10.1824 3.585019 31.09739 -2.871232
2007-04-13 09:39:46 51°30.446 3°8.501 10.1854 3.585122 31.095209 -2.871232
2007-04-13 09:40:46 51°30.48 3°8.563 10.1873 3.585226 31.097002 -2.871232
2007-04-13 09:41:46 51°30.514 3°8.624 10.1901 3.58564 31.096226 -2.871232
2007-04-13 09:42:46 51°30.549 3°8.686 10.1916 3.585951 31.098425 -2.871232
2007-04-13 09:43:46 51°30.585 3°8.746 10.1925 3.586365 31.09765 -2.871232
2007-04-13 09:44:46 51°30.621 3°8.808 10.1849 3.586262 31.101419 -2.871232
2007-04-13 09:45:46 51°30.653 3°8.873 10.1822 3.585951 31.102398 -2.871232
2007-04-13 09:46:46 51°30.679 3°8.944 10.1777 3.585847 31.10299 -2.871232
2007-04-13 09:47:46 51°30.699 3°9.02 10.1658 3.585329 31.105153 -2.871232
2007-04-13 09:48:46 51°30.716 3°9.098 10.164 3.584087 31.101124 -2.871232
2007-04-13 09:49:46 51°30.735 3°9.175 10.1765 3.584915 31.109112 -2.871232
2007-04-13 09:50:46 51°30.762 3°9.241 10.1881 3.584397 31.09299 -2.871232
2007-04-13 09:51:46 51°30.804 3°9.278 10.195 3.583672 31.07568 -2.871232
2007-04-13 09:52:46 51°30.844 3°9.272 10.2148 3.585329 31.081322 -2.871232
2007-04-13 09:53:46 51°30.863 3°9.232 10.2003 3.583154 31.057203 -2.871232
2007-04-13 09:54:46 51°30.84 3°9.158 10.1804 3.580047 31.043141 -2.871232
2007-04-13 09:55:46 51°30.807 3°9.078 10.1581 3.585226 31.099386 -2.871232
2007-04-13 09:56:46 51°30.777 3°9.021 10.1079 3.583983 31.120812 -2.871232
2007-04-13 09:57:46 51°30.744 3°8.965 10.0851 3.582327 31.147861 -2.871232
2007-04-13 09:58:46 51°30.71 3°8.906 10.0707 3.581498 31.148636 -2.871232
2007-04-13 09:59:46 51°30.675 3°8.846 10.071 3.580877 31.150616 -2.871232
2007-04-13 10:00:46 51°30.639 3°8.785 10.082 3.580152 31.143609 -2.871232
2007-04-13 10:01:46 51°30.604 3°8.724 10.1044 3.580462 31.135438 -2.871232
2007-04-13 10:02:46 51°30.57 3°8.661 10.0852 3.581394 31.128489 -2.871232
2007-04-13 10:03:46 51°30.536 3°8.598 10.0917 3.580255 31.134234 -2.871232
2007-04-13 10:04:46 51°30.501 3°8.537 10.1012 3.580876 31.133057 -2.871232
2007-04-13 10:05:46 51°30.468 3°8.474 10.1066 3.581809 31.130894 -2.871232
2007-04-13 10:06:46 51°30.441 3°8.42 10.1111 3.581705 31.130692 -2.871232
2007-04-13 10:07:46 51°30.418 3°8.377 10.1135 3.581912 31.127908 -2.871232
2007-04-13 10:08:46 51°30.395 3°8.341 10.1149 3.582119 31.130705 -2.871232
2007-04-13 10:09:46 51°30.371 3°8.301 10.122 3.582326 31.129517 -2.871232
2007-04-13 10:10:46 51°30.347 3°8.259 10.1347 3.582948 31.126749 -2.871232
2007-04-13 10:11:46 51°30.323 3°8.212 10.1365 3.58388 31.125387 -2.871232
2007-04-13 10:12:46 51°30.293 3°8.156 10.1447 3.584501 31.127401 -2.871232
2007-04-13 10:13:46 51°30.256 3°8.095 10.1431 3.584916 31.127416 -2.871232
2007-04-13 10:14:46 51°30.221 3°8.037 10.1424 3.584398 31.124013 -2.871232
2007-04-13 10:15:46 51°30.189 3°7.981 10.1364 3.58419 31.121218 -2.871232
2007-04-13 10:16:46 51°30.158 3°7.925 10.1472 3.584294 31.127792 -2.871232
2007-04-13 10:17:46 51°30.127 3°7.87 10.1593 3.585537 31.127836 -2.871232
2007-04-13 10:18:46 51°30.094 3°7.816 10.1707 3.586676 31.126882 -2.871232
2007-04-13 10:19:46 51°30.064 3°7.755 10.183 3.587505 31.1293 -2.871232
2007-04-13 10:20:46 51°30.033 3°7.695 10.1931 3.588333 31.122968 -2.871232
2007-04-13 10:21:46 51°29.999 3°7.638 10.2204 3.589265 31.120818 -2.871232
2007-04-13 10:22:46 51°29.964 3°7.581 10.2321 3.591026 31.116323 -2.871232
2007-04-13 10:23:46 51°29.93 3°7.525 10.2391 3.590922 31.109768 -2.871232
2007-04-13 10:24:46 51°29.897 3°7.467 10.2496 3.590093 31.092273 -2.871232
2007-04-13 10:25:46 51°29.863 3°7.411 10.2663 3.589058 31.072796 -2.871232
2007-04-13 10:26:46 51°29.829 3°7.354 10.2434 3.587504 31.055478 -2.871232
2007-04-13 10:27:46 51°29.797 3°7.296 10.248 3.585121 31.03257 -2.871232
2007-04-13 10:28:46 51°29.765 3°7.238 10.2668 3.583982 31.020824 -2.871232
2007-04-13 10:29:46 51°29.733 3°7.18 10.2628 3.5845 31.017104 -2.871232
2007-04-13 10:30:46 51°29.702 3°7.12 10.2754 3.583775 31.002233 -2.871232
2007-04-13 10:31:46 51°29.671 3°7.059 10.2697 3.583567 30.998663 -2.871232
2007-04-13 10:32:46 51°29.649 3°6.989 10.3079 3.582532 30.995819 -2.871232
2007-04-13 10:33:46 51°29.635 3°6.911 10.322 3.58512 30.972555 -2.871232
2007-04-13 10:34:46 51°29.63 3°6.83 10.3316 3.585224 30.97749 -2.871232
2007-04-13 10:35:46 51°29.645 3°6.726 10.3519 3.586467 30.964992 -2.871232
2007-04-13 10:36:46 51°29.668 3°6.563 10.2659 3.586881 30.976842 -2.871232
2007-04-13 10:37:46 51°29.696 3°6.385 10.1669 3.582118 31.017135 -2.871232
2007-04-13 10:38:46 51°29.778 3°6.275 10.3152 3.578493 31.015499 -2.871232
2007-04-13 10:39:46 51°29.851 3°6.312 10.3316 3.585431 30.968445 -2.871232
2007-04-13 10:40:46 51°29.886 3°6.382 10.2746 3.586363 30.967936 -2.871232
2007-04-13 10:41:46 51°29.915 3°6.445 10.3313 3.584914 31.008441 -2.871232
2007-04-13 10:42:46 51°29.943 3°6.501 10.3539 3.58657 30.973073 -2.871232
2007-04-13 10:43:46 51°29.974 3°6.562 10.3817 3.587813 30.962948 -2.871232
2007-04-13 10:44:46 51°30.016 3°6.633 10.4064 3.589159 30.954616 -2.871232
2007-04-13 10:45:46 51°30.053 3°6.695 10.4242 3.590609 30.94886 -2.871232
2007-04-13 10:46:46 51°30.083 3°6.751 10.4296 3.591541 30.946005 -2.871232
2007-04-13 10:47:46 51°30.108 3°6.804 10.4291 3.591852 30.945839 -2.871232
2007-04-13 10:48:46 51°30.137 3°6.862 10.4197 3.591749 30.946418 -2.871232
2007-04-13 10:49:46 51°30.171 3°6.927 10.4281 3.591438 30.949725 -2.871232
2007-04-13 10:50:46 51°30.21 3°6.995 10.4336 3.592059 30.947822 -2.871232
2007-04-13 10:51:46 51°30.248 3°7.063 10.4406 3.59237 30.946086 -2.871232
2007-04-13 10:52:46 51°30.283 3°7.129 10.4414 3.592888 30.946333 -2.871232
2007-04-13 10:53:46 51°30.316 3°7.193 10.4423 3.592991 30.948109 -2.871232
2007-04-13 10:54:46 51°30.347 3°7.255 10.4546 3.593613 30.948562 -2.871232
2007-04-13 10:55:46 51°30.378 3°7.315 10.4612 3.594234 30.949015 -2.871232
2007-04-13 10:56:46 51°30.408 3°7.375 10.4622 3.594959 30.948105 -2.871232
2007-04-13 10:57:46 51°30.439 3°7.434 10.4649 3.595581 30.950911 -2.871232
2007-04-13 10:58:46 51°30.47 3°7.496 10.4709 3.595788 30.951324 -2.871232
2007-04-13 10:59:46 51°30.503 3°7.559 10.4824 3.596513 30.951199 -2.871232
2007-04-13 11:00:46 51°30.538 3°7.623 10.4933 3.597652 30.951899 -2.871232
2007-04-13 11:01:46 51°30.573 3°7.689 10.4934 3.598688 30.95396 -2.871232
2007-04-13 11:02:46 51°30.607 3°7.756 10.4925 3.598792 30.956518 -2.871232
2007-04-13 11:03:46 51°30.642 3°7.823 10.488 3.598895 30.959859 -2.871232
2007-04-13 11:04:46 51°30.677 3°7.89 10.4987 3.599413 30.964024 -2.871232
2007-04-13 11:05:46 51°30.711 3°7.955 10.5026 3.600552 30.969425 -2.871232
2007-04-13 11:06:46 51°30.744 3°8.02 10.5155 3.600034 30.957423 -2.871232
2007-04-13 11:07:46 51°30.777 3°8.085 10.5103 3.600449 30.955897 -2.871232
2007-04-13 11:08:46 51°30.809 3°8.15 10.5068 3.602831 30.983357 -2.871232
2007-04-13 11:09:46 51°30.84 3°8.214 10.4938 3.601692 30.976392 -2.871232
2007-04-13 11:10:46 51°30.872 3°8.278 10.4882 3.604178 31.00878 -2.871232
2007-04-13 11:11:46 51°30.902 3°8.344 10.4784 3.604075 31.015643 -2.871232
2007-04-13 11:12:46 51°30.93 3°8.413 10.4745 3.602107 31.004679 -2.871232
2007-04-13 11:13:46 51°30.957 3°8.482 10.4677 3.603039 31.015166 -2.871232
2007-04-13 11:14:46 51°30.985 3°8.55 10.4668 3.60221 31.012741 -2.871232
2007-04-13 11:15:46 51°31.023 3°8.603 10.4716 3.606872 31.051821 -2.871232
2007-04-13 11:16:46 51°31.071 3°8.61 10.4688 3.603453 31.023058 -2.871232
2007-04-13 11:17:46 51°31.096 3°8.555 10.4639 3.604903 31.037715 -2.871232
2007-04-13 11:18:46 51°31.057 3°8.498 10.4592 3.602728 31.025556 -2.871232
2007-04-13 11:19:46 51°31.016 3°8.418 10.464 3.599517 30.988554 -2.871232
2007-04-13 11:20:46 51°30.983 3°8.353 10.4449 3.598896 30.989677 -2.871232
2007-04-13 11:21:46 51°30.948 3°8.307 10.4594 3.604904 31.049517 -2.871232
2007-04-13 11:22:46 51°30.915 3°8.25 10.4656 3.603453 31.03564 -2.871232
2007-04-13 11:23:46 51°30.885 3°8.187 10.4966 3.60366 31.011681 -2.871232
2007-04-13 11:24:46 51°30.853 3°8.123 10.5092 3.603142 30.994955 -2.871232
2007-04-13 11:25:46 51°30.817 3°8.061 10.4844 3.603349 30.981249 -2.871232
2007-04-13 11:26:46 51°30.782 3°8.001 10.4381 3.599828 30.985244 -2.871232
2007-04-13 11:27:46 51°30.747 3°7.939 10.4373 3.596928 30.989703 -2.871232
2007-04-13 11:28:46 51°30.712 3°7.876 10.4876 3.597031 30.982837 -2.871232
2007-04-13 11:29:46 51°30.677 3°7.811 10.5362 3.600759 30.961215 -2.871232
2007-04-13 11:30:46 51°30.644 3°7.743 10.4631 3.602624 30.965705 -2.871232
2007-04-13 11:31:46 51°30.61 3°7.681 10.3928 3.598481 30.99357 -2.871232
2007-04-13 11:32:46 51°30.579 3°7.618 10.3202 3.594132 31.012492 -2.871232
2007-04-13 11:33:46 51°30.547 3°7.557 10.2379 3.590507 31.045578 -2.871232
2007-04-13 11:34:46 51°30.516 3°7.495 10.2663 3.587089 31.051494 -2.871232
2007-04-13 11:35:46 51°30.484 3°7.434 10.2729 3.5874 31.049732 -2.871232
2007-04-13 11:36:46 51°30.452 3°7.37 10.2781 3.588229 31.043454 -2.871232
2007-04-13 11:37:46 51°30.421 3°7.306 10.2417 3.588125 31.039295 -2.871232
2007-04-13 11:38:46 51°30.389 3°7.242 10.2465 3.586571 31.046514 -2.871232
2007-04-13 11:39:46 51°30.356 3°7.178 10.1884 3.586572 31.065524 -2.871232
2007-04-13 11:40:46 51°30.324 3°7.113 10.2221 3.585536 31.072207 -2.871232
2007-04-13 11:41:46 51°30.291 3°7.049 10.1949 3.586468 31.073249 -2.871232
2007-04-13 11:42:46 51°30.258 3°6.985 10.1688 3.585433 31.093436 -2.871232
2007-04-13 11:43:46 51°30.224 3°6.921 10.2607 3.585019 31.087062 -2.871232
2007-04-13 11:44:46 51°30.191 3°6.857 10.3453 3.589575 31.039786 -2.871232
2007-04-13 11:45:46 51°30.157 3°6.793 10.399 3.593303 31.020311 -2.871232
2007-04-13 11:46:46 51°30.122 3°6.729 10.4417 3.596824 31.005226 -2.871232
2007-04-13 11:47:46 51°30.088 3°6.664 10.4587 3.599724 31.003105 -2.871232
2007-04-13 11:48:46 51°30.053 3°6.599 10.4883 3.60076 30.996515 -2.871232
2007-04-13 11:49:46 51°30.018 3°6.533 10.5052 3.601588 30.976186 -2.871232
2007-04-13 11:50:46 51°29.984 3°6.466 10.5045 3.601174 30.960472 -2.871232
2007-04-13 11:51:46 51°29.949 3°6.4 10.4497 3.600035 30.968396 -2.871232
2007-04-13 11:52:46 51°29.911 3°6.328 10.4283 3.597756 30.992918 -2.871232
2007-04-13 11:53:46 51°29.915 3°6.189 10.5665 3.596927 30.972422 -2.871232
2007-04-13 11:54:46 51°30.033 3°6.136 10.5936 3.60428 30.919748 -2.871232
2007-04-13 11:55:46 51°30.181 3°6.175 10.4384 3.609253 31.011759 -2.871232
2007-04-13 11:56:46 51°30.333 3°6.228 10.433 3.606458 31.085662 -2.871232
2007-04-13 11:57:46 51°30.487 3°6.281 10.3474 3.605629 31.078515 -2.871232
2007-04-13 11:58:46 51°30.639 3°6.337 10.3477 3.598275 31.082219 -2.871232
2007-04-13 11:59:46 51°30.696 3°6.451 10.4355 3.596825 31.046985 -2.871232
2007-04-13 12:00:46 51°30.688 3°6.531 10.4506 3.60076 31.009086 -2.871232
2007-04-13 12:01:46 51°30.659 3°6.584 10.4401 3.601382 31.013459 -2.871232
2007-04-13 12:02:46 51°30.624 3°6.654 10.4018 3.600139 31.025947 -2.871232
2007-04-13 12:03:46 51°30.592 3°6.727 10.3625 3.598793 31.04298 -2.871232
2007-04-13 12:04:46 51°30.56 3°6.788 10.3863 3.597964 31.053965 -2.871232
2007-04-13 12:05:46 51°30.526 3°6.838 10.4226 3.599103 31.043593 -2.871232
2007-04-13 12:06:46 51°30.488 3°6.882 10.4498 3.601175 31.030354 -2.871232
2007-04-13 12:07:46 51°30.447 3°6.924 10.5251 3.603142 31.017728 -2.871232
2007-04-13 12:08:46 51°30.407 3°6.971 10.5495 3.607182 30.996685 -2.871232
2007-04-13 12:09:46 51°30.368 3°7.024 10.5405 3.607596 30.993588 -2.871232
2007-04-13 12:10:46 51°30.329 3°7.078 10.5525 3.607285 30.993755 -2.871232
2007-04-13 12:11:46 51°30.289 3°7.129 10.5562 3.607388 30.981429 -2.871232
2007-04-13 12:12:46 51°30.248 3°7.179 10.5653 3.606974 30.975128 -2.871232
2007-04-13 12:13:46 51°30.207 3°7.228 10.5783 3.607078 30.967509 -2.871232
2007-04-13 12:14:46 51°30.165 3°7.276 10.5985 3.607802 30.960348 -2.871232
2007-04-13 12:15:46 51°30.123 3°7.323 10.6237 3.608527 30.948509 -2.871232
2007-04-13 12:16:46 51°30.081 3°7.371 10.6439 3.608734 30.932532 -2.871232
2007-04-13 12:17:46 51°30.039 3°7.418 10.6708 3.60863 30.910501 -2.871232
2007-04-13 12:18:46 51°29.998 3°7.468 10.679 3.60863 30.89182 -2.871232
2007-04-13 12:19:46 51°29.956 3°7.518 10.6643 3.607905 30.883369 -2.871232
2007-04-13 12:20:46 51°29.915 3°7.568 10.648 3.606248 30.879272 -2.871232
2007-04-13 12:21:46 51°29.874 3°7.619 10.6367 3.604487 30.8773 -2.871232
2007-04-13 12:22:46 51°29.835 3°7.672 10.622 3.603762 30.877403 -2.871232
2007-04-13 12:23:46 51°29.808 3°7.738 10.6107 3.602416 30.881713 -2.871232
2007-04-13 12:24:46 51°29.791 3°7.82 10.6158 3.602105 30.884986 -2.871232
2007-04-13 12:25:46 51°29.795 3°7.939 10.6335 3.603659 30.891213 -2.871232
2007-04-13 12:26:46 51°29.836 3°8.058 10.6355 3.605419 30.895516 -2.871232
2007-04-13 12:27:46 51°29.898 3°8.188 10.6405 3.606662 30.902675 -2.871232
2007-04-13 12:28:46 51°29.969 3°8.323 10.5987 3.607077 30.911294 -2.871232
2007-04-13 12:29:46 51°30.041 3°8.462 10.5753 3.604384 30.920735 -2.871232
2007-04-13 12:30:46 51°30.109 3°8.602 10.6161 3.60687 30.944429 -2.871232
2007-04-13 12:31:46 51°30.182 3°8.652 10.6063 3.611428 30.970676 -2.871232
2007-04-13 12:32:46 51°30.231 3°8.617 10.5948 3.611117 30.975529 -2.871232
2007-04-13 12:33:46 51°30.276 3°8.567 10.6093 3.611739 30.979889 -2.871232
2007-04-13 12:34:46 51°30.323 3°8.528 10.6165 3.613085 30.984904 -2.871232
2007-04-13 12:35:46 51°30.369 3°8.493 10.6029 3.613085 30.986468 -2.871232
2007-04-13 12:36:46 51°30.408 3°8.443 10.625 3.612567 30.987005 -2.871232
2007-04-13 12:37:46 51°30.444 3°8.388 10.6215 3.614742 30.99366 -2.871232
2007-04-13 12:38:46 51°30.482 3°8.337 10.6116 3.613189 30.984328 -2.871232
2007-04-13 12:39:46 51°30.521 3°8.29 10.6276 3.613085 30.980215 -2.871232
2007-04-13 12:40:46 51°30.56 3°8.242 10.6309 3.61381 30.981653 -2.871232
2007-04-13 12:41:46 51°30.599 3°8.193 10.6282 3.613603 30.978118 -2.871232
2007-04-13 12:42:46 51°30.637 3°8.14 10.6479 3.613396 30.966774 -2.871232
2007-04-13 12:43:46 51°30.675 3°8.088 10.6512 3.614224 30.960617 -2.871232
2007-04-13 12:44:46 51°30.713 3°8.035 10.6242 3.612981 30.952686 -2.871232
2007-04-13 12:45:46 51°30.751 3°7.982 10.6424 3.609356 30.941571 -2.871232
2007-04-13 12:46:46 51°30.789 3°7.93 10.6884 3.612463 30.936843 -2.871232
2007-04-13 12:47:46 51°30.827 3°7.878 10.7062 3.615363 30.934052 -2.871232
2007-04-13 12:48:46 51°30.864 3°7.824 10.7198 3.616295 30.930462 -2.871232
2007-04-13 12:49:46 51°30.9 3°7.77 10.7533 3.617952 30.929876 -2.871232
2007-04-13 12:50:46 51°30.936 3°7.716 10.7692 3.62106 30.932957 -2.871232
2007-04-13 12:51:46 51°30.974 3°7.663 10.7635 3.622613 30.937604 -2.871232
2007-04-13 12:52:46 51°31.012 3°7.611 10.7166 3.623132 30.956509 -2.871232
2007-04-13 12:53:46 51°31.049 3°7.525 10.5811 3.620439 31.002593 -2.871232
2007-04-13 12:54:46 51°31.1 3°7.4 10.6385 3.613914 31.039783 -2.871232
2007-04-13 12:55:46 51°31.157 3°7.375 10.7446 3.618471 30.979967 -2.871232
2007-04-13 12:56:46 51°31.196 3°7.423 10.7837 3.624582 30.963277 -2.871232
2007-04-13 12:57:46 51°31.188 3°7.493 10.7333 3.626343 30.964441 -2.871232
2007-04-13 12:58:46 51°31.148 3°7.552 10.6516 3.622718 30.986046 -2.871232
2007-04-13 12:59:46 51°31.099 3°7.616 10.6976 3.618471 30.994795 -2.871232
2007-04-13 13:00:46 51°31.05 3°7.669 10.6921 3.620853 30.982351 -2.871232
2007-04-13 13:01:46 51°31.004 3°7.714 10.6998 3.621268 30.992529 -2.871232
2007-04-13 13:02:46 51°30.967 3°7.767 10.7482 3.622096 30.984814 -2.871232
2007-04-13 13:03:46 51°30.936 3°7.827 10.7813 3.624478 30.964627 -2.871232
2007-04-13 13:04:46 51°30.902 3°7.884 10.7845 3.62541 30.952488 -2.871232
2007-04-13 13:05:46 51°30.863 3°7.935 10.7689 3.624582 30.949287 -2.871232
2007-04-13 13:06:46 51°30.821 3°7.981 10.7642 3.622717 30.94014 -2.871232
2007-04-13 13:07:46 51°30.779 3°8.028 10.7693 3.622717 30.94014 -2.871232
2007-04-13 13:08:46 51°30.739 3°8.077 10.7273 3.617745 30.903825 -2.871232
2007-04-13 13:09:46 51°30.701 3°8.129 10.743 3.618677 30.93443 -2.871232
2007-04-13 13:10:46 51°30.662 3°8.18 10.7404 3.617123 30.907242 -2.871232
2007-04-13 13:11:46 51°30.622 3°8.229 10.7217 3.620542 30.954475 -2.871232
2007-04-13 13:12:46 51°30.582 3°8.278 10.6969 3.620439 30.961274 -2.871232
2007-04-13 13:13:46 51°30.543 3°8.33 10.6807 3.617642 30.964288 -2.871232
2007-04-13 13:14:46 51°30.508 3°8.386 10.6866 3.616917 30.96051 -2.871232
2007-04-13 13:15:46 51°30.47 3°8.439 10.6664 3.617642 30.966627 -2.871232
2007-04-13 13:16:46 51°30.429 3°8.488 10.6981 3.617435 30.969334 -2.871232
2007-04-13 13:17:46 51°30.388 3°8.535 10.6776 3.620128 30.978575 -2.871232
2007-04-13 13:18:46 51°30.348 3°8.583 10.6875 3.618575 30.979393 -2.871232
2007-04-13 13:19:46 51°30.32 3°8.639 10.7144 3.619403 30.973239 -2.871232
2007-04-13 13:20:46 51°30.316 3°8.718 10.7427 3.62106 30.965622 -2.871232
2007-04-13 13:21:46 51°30.418 3°8.891 10.7552 3.622717 30.960353 -2.871232
2007-04-13 13:22:46 51°30.577 3°9.066 10.7374 3.625307 30.975606 -2.871232
2007-04-13 13:23:46 51°30.686 3°9.135 10.7155 3.627276 31.016107 -2.871232
2007-04-13 13:24:46 51°30.746 3°9.114 10.7076 3.626033 31.019892 -2.871232
2007-04-13 13:25:46 51°30.771 3°9.055 10.7066 3.625204 31.017475 -2.871232
2007-04-13 13:26:46 51°30.76 3°8.986 10.7177 3.625515 31.014968 -2.871232
2007-04-13 13:27:46 51°30.724 3°8.916 10.7272 3.626136 31.013076 -2.871232
2007-04-13 13:28:46 51°30.694 3°8.832 10.7411 3.628104 31.016184 -2.871232
2007-04-13 13:29:46 51°30.667 3°8.755 10.7478 3.629554 31.020607 -2.871232
2007-04-13 13:30:46 51°30.636 3°8.688 10.7399 3.629451 31.025079 -2.871232
2007-04-13 13:31:46 51°30.604 3°8.623 10.7476 3.628933 31.020159 -2.871232
2007-04-13 13:32:46 51°30.572 3°8.56 10.7791 3.629243 31.007528 -2.871232
2007-04-13 13:33:46 51°30.537 3°8.502 10.7777 3.629761 31.000767 -2.871232
2007-04-13 13:34:46 51°30.5 3°8.449 10.7827 3.62945 30.99315 -2.871232
2007-04-13 13:35:46 51°30.463 3°8.394 10.7721 3.628518 30.980416 -2.871232
2007-04-13 13:36:46 51°30.426 3°8.339 10.7645 3.626964 30.974225 -2.871232
2007-04-13 13:37:46 51°30.39 3°8.283 10.7452 3.62541 30.96881 -2.871232
2007-04-13 13:38:46 51°30.356 3°8.222 10.7733 3.624582 30.9625 -2.871232
2007-04-13 13:39:46 51°30.325 3°8.158 10.7883 3.626239 30.96035 -2.871232
2007-04-13 13:40:46 51°30.293 3°8.097 10.788 3.625825 30.957196 -2.871232
2007-04-13 13:41:46 51°30.259 3°8.039 10.7684 3.627171 30.955987 -2.871232
2007-04-13 13:42:46 51°30.224 3°7.982 10.7461 3.621267 30.940363 -2.871232
2007-04-13 13:43:46 51°30.19 3°7.924 10.733 3.618574 30.92645 -2.871232
2007-04-13 13:44:46 51°30.155 3°7.866 10.7377 3.617434 30.916407 -2.871232
2007-04-13 13:45:46 51°30.12 3°7.807 10.7059 3.615155 30.907973 -2.871232
2007-04-13 13:46:46 51°30.07 3°7.729 10.688 3.611841 30.899019 -2.871232
2007-04-13 13:47:46 51°29.943 3°7.547 10.7022 3.610287 30.887361 -2.871232
2007-04-13 13:48:46 51°29.796 3°7.275 10.7026 3.609769 30.876999 -2.871232
2007-04-13 13:49:46 51°29.652 3°6.996 10.7165 3.611737 30.877059 -2.871232
2007-04-13 13:50:46 51°29.51 3°6.715 10.6765 3.612566 30.884153 -2.871232
2007-04-13 13:51:46 51°29.363 3°6.443 10.6408 3.605212 30.866309 -2.871232
2007-04-13 13:52:46 51°29.215 3°6.172 10.6886 3.599307 30.820251 -2.871232
2007-04-13 13:53:46 51°29.066 3°5.903 10.6787 3.59361 30.727361 -2.871232
2007-04-13 13:54:46 51°28.891 3°5.676 10.7091 3.586877 30.681954 -2.871232
2007-04-13 13:55:46 51°28.719 3°5.441 10.7058 3.588534 30.669132 -2.871232
2007-04-13 13:56:46 51°28.547 3°5.205 10.6677 3.586152 30.651145 -2.871232
2007-04-13 13:57:46 51°28.375 3°4.968 10.6695 3.582216 30.632278 -2.871232
2007-04-13 13:58:46 51°28.203 3°4.728 10.6285 3.579627 30.630818 -2.871232
2007-04-13 13:59:46 51°28.032 3°4.49 10.5794 3.579005 30.648847 -2.871232
2007-04-13 14:00:46 51°27.86 3°4.249 10.606 3.581595 30.675022 -2.871232
2007-04-13 14:01:46 51°27.685 3°4.009 10.5551 3.583978 30.711622 -2.871232
2007-04-13 14:02:46 51°27.508 3°3.776 10.6367 3.585532 30.778433 -2.871232
2007-04-13 14:03:46 51°27.333 3°3.543 10.7876 3.582837 30.613522 -2.871232
2007-04-13 14:04:46 51°27.157 3°3.311 10.8183 3.579521 30.509952 -2.871232
2007-04-13 14:05:46 51°26.983 3°3.073 10.7609 3.5818 30.507798 -2.871232
2007-04-13 14:06:46 51°26.809 3°2.837 10.7698 3.580454 30.541761 -2.871232
2007-04-13 14:07:46 51°26.635 3°2.6 10.7585 3.580454 30.544829 -2.871232
2007-04-13 14:08:46 51°26.462 3°2.365 10.6287 3.577555 30.585708 -2.871232
2007-04-13 14:09:46 51°26.289 3°2.126 10.6456 3.573101 30.546501 -2.871232
2007-04-13 14:10:46 51°26.115 3°1.888 10.5867 3.56989 30.555246 -2.871232
2007-04-13 14:11:46 51°25.941 3°1.649 10.6008 3.565955 30.559435 -2.871232
2007-04-13 14:12:46 51°25.768 3°1.403 10.6471 3.565333 30.50886 -2.871232
2007-04-13 14:13:46 51°25.591 3°1.169 10.6556 3.563572 30.493667 -2.871232
2007-04-13 14:14:46 51°25.378 3°1.091 10.6182 3.56005 30.449467 -2.871232
2007-04-13 14:15:46 51°25.163 3°1.138 10.5915 3.556943 30.459097 -2.871232
2007-04-13 14:16:46 51°24.946 3°1.182 10.5708 3.548037 30.41663 -2.871232
2007-04-13 14:17:46 51°24.727 3°1.219 10.7004 3.547104 30.35791 -2.871232
2007-04-13 14:18:46 51°24.505 3°1.25 10.8005 3.550624 30.285978 -2.871232
2007-04-13 14:19:46 51°24.283 3°1.274 10.8734 3.553523 30.262497 -2.871232
2007-04-13 14:20:46 51°24.057 3°1.279 13.8811 3.718417 29.950558 -2.871232
2007-04-13 14:21:46 51°23.831 3°1.277 11.4737 2.909935 22.724568 -2.871232
2007-04-13 14:22:46 51°23.606 3°1.276 11.3903 3.107537 25.489435 -2.871232
2007-04-13 14:23:46 51°23.39 3°1.165 11.1957 3.295792 27.31898 -2.871232
2007-04-13 14:24:46 51°23.198 3°0.955 11.092 3.241555 26.913957 -2.871232
2007-04-13 14:25:46 51°23.021 3°0.709 11.1231 3.057877 25.291648 -2.871232
2007-04-13 14:26:46 51°22.857 3°0.439 11.1356 2.999943 24.760489 -2.871232
2007-04-13 14:27:46 51°22.689 3°0.177 11.0954 3.238037 26.940067 -2.871232
2007-04-13 14:28:46 51°22.518 2°59.918 11.1279 2.269567 18.234844 -2.871232
2007-04-13 14:29:46 51°22.346 2°59.662 11.2218 2.80778 23.011637 -2.871232
2007-04-13 14:30:46 51°22.183 2°59.391 11.2076 2.639366 21.456938 -2.871232
2007-04-13 14:31:46 51°22.02 2°59.119 11.16 2.967772 24.413057 -2.871232
2007-04-13 14:32:46 51°21.857 2°58.847 11.1089 3.129994 25.931128 -2.871232
2007-04-13 14:33:46 51°21.693 2°58.577 11.0466 2.944396 24.265686 -2.871232
2007-04-13 14:34:46 51°21.528 2°58.305 11.0588 3.392592 28.423764 -2.871232
2007-04-13 14:35:46 51°21.363 2°58.032 11.0074 2.987945 24.705554 -2.871232
2007-04-13 14:36:46 51°21.198 2°57.758 10.9993 3.345382 28.01446 -2.871232
2007-04-13 14:37:46 51°21.036 2°57.482 11.0953 3.463521 29.111966 -2.871232
2007-04-13 14:38:46 51°20.873 2°57.205 11.0688 3.156072 26.213856 -2.871232
2007-04-13 14:39:46 51°20.712 2°56.928 11.1023 2.718552 22.245294 -2.871232
2007-04-13 14:40:46 51°20.55 2°56.649 11.0993 3.200571 26.611423 -2.871232
2007-04-13 14:41:46 51°20.388 2°56.372 11.1237 2.707903 22.125485 -2.871232
2007-04-13 14:42:46 51°20.226 2°56.094 11.1653 3.310804 27.598359 -2.871232
2007-04-13 14:43:46 51°20.061 2°55.815 11.1185 2.67751 21.819334 -2.871232
2007-04-13 14:44:46 51°19.897 2°55.534 11.1348 2.3177 18.640561 -2.871232
2007-04-13 14:45:46 51°19.733 2°55.253 11.1662 2.24292 17.976849 -2.871232
2007-04-13 14:46:46 51°19.568 2°54.973 11.1735 2.505837 20.280864 -2.871232
2007-04-13 14:47:46 51°19.402 2°54.693 11.1242 3.025805 24.949249 -2.871232
2007-04-13 14:48:46 51°19.236 2°54.411 11.0986 3.160831 26.212839 -2.871232
2007-04-13 14:49:46 51°19.07 2°54.13 11.0394 3.123372 25.890341 -2.871232
2007-04-13 14:50:46 51°18.904 2°53.852 11.0077 2.708214 22.160519 -2.871232
2007-04-13 14:51:46 51°18.739 2°53.57 11.0176 2.241165 18.020898 -2.871232
2007-04-13 14:52:46 51°18.573 2°53.287 10.9828 2.530123 20.577593 -2.871232
2007-04-13 14:53:46 51°18.406 2°53.006 10.9803 2.738713 22.465585 -2.871232
2007-04-13 14:54:46 51°18.239 2°52.724 10.9753 2.828152 23.276387 -2.871232
2007-04-13 14:55:46 51°18.053 2°52.484 10.9295 2.849041 23.469789 -2.871232
2007-04-13 14:56:46 51°17.837 2°52.335 10.823 3.23483 27.02939 -2.871232
2007-04-13 14:57:46 51°17.605 2°52.296 10.7257 3.25015 27.231804 -2.871232
2007-04-13 14:58:46 51°17.375 2°52.331 10.6967 2.852456 23.644177 -2.871232
2007-04-13 14:59:46 51°17.145 2°52.373 10.7494 3.183602 26.687009 -2.871232
2007-04-13 15:00:46 51°16.918 2°52.42 10.8069 3.223964 27.030285 -2.871232
2007-04-13 15:01:46 51°16.7 2°52.532 10.8424 2.859487 23.65415 -2.871232
2007-04-13 15:02:46 51°16.483 2°52.66 10.9518 2.565365 20.973709 -2.871232
2007-04-13 15:03:46 51°16.268 2°52.782 11.179 2.628928 21.490074 -2.871232
2007-04-13 15:04:46 51°16.056 2°52.903 11.3125 2.510177 20.316398 -2.871232
2007-04-13 15:05:46 51°15.847 2°53.033 11.4388 3.053944 25.111371 -2.871232
2007-04-13 15:06:46 51°15.649 2°53.195 11.393 2.887197 23.522262 -2.871232
2007-04-13 15:07:46 51°15.476 2°53.404 11.4549 3.319497 27.461671 -2.871232
2007-04-13 15:08:46 51°15.311 2°53.615 11.4807 3.331297 27.531331 -2.871232
2007-04-13 15:09:46 51°15.145 2°53.835 11.3939 2.374822 18.954315 -2.871232
2007-04-13 15:10:46 51°14.986 2°54.072 11.3077 2.784098 22.613714 -2.871232
2007-04-13 15:11:46 51°14.82 2°54.298 11.2628 2.497362 20.112651 -2.871232
2007-04-13 15:12:46 51°14.657 2°54.532 11.3552 3.026114 24.874887 -2.871232
2007-04-13 15:13:46 51°14.508 2°54.786 11.4536 2.814499 22.918608 -2.871232
2007-04-13 15:14:46 51°14.371 2°55.054 11.6165 2.839936 23.087934 -2.871232
2007-04-13 15:15:46 51°14.228 2°55.311 11.9594 2.808395 22.698414 -2.871232
2007-04-13 15:16:46 51°14.061 2°55.463 11.9334 2.182809 17.075455 -2.871232
2007-04-13 15:17:46 51°13.929 2°55.56 11.9912 2.490123 19.690422 -2.871232
2007-04-13 15:18:46 51°13.805 2°55.653 12.1829 2.653727 21.11267 -2.871232
2007-04-13 15:19:46 51°13.725 2°55.757 12.4952 2.503142 19.713923 -2.871232
2007-04-13 15:20:46 51°13.67 2°55.866 12.6984 2.424094 18.885093 -2.871232
2007-04-13 15:21:46 51°13.63 2°55.965 12.6619 2.134581 16.329992 -2.871232